sensor_id;sensor_type;location;lat;lon;timestamp;pressure;altitude;pressure_sealevel;temperature;humidity
10510;BME280;5303;53.266;10.410;2022-08-01T00:00:33;101027.47;;;19.91;100.00
10510;BME280;5303;53.266;10.410;2022-08-01T00:02:58;101026.66;;;19.84;100.00
10510;BME280;5303;53.266;10.410;2022-08-01T00:05:23;101030.75;;;19.81;100.00
10510;BME280;5303;53.266;10.410;2022-08-01T00:07:49;101034.19;;;19.76;100.00
10510;BME280;5303;53.266;10.410;2022-08-01T00:10:15;101030.59;;;19.76;100.00
10510;BME280;5303;53.266;10.410;2022-08-01T00:12:42;101026.13;;;19.75;100.00
10510;BME280;5303;53.266;10.410;2022-08-01T00:15:10;101033.81;;;19.73;100.00
10510;BME280;5303;53.266;10.410;2022-08-01T00:17:36;101030.59;;;19.76;100.00
10510;BME280;5303;53.266;10.410;2022-08-01T00:20:03;101030.38;;;19.77;100.00
10510;BME280;5303;53.266;10.410;2022-08-01T00:22:32;101025.06;;;19.76;100.00
10510;BME280;5303;53.266;10.410;2022-08-01T00:24:58;101032.50;;;19.75;100.00
10510;BME280;5303;53.266;10.410;2022-08-01T00:27:23;101039.13;;;19.74;100.00
10510;BME280;5303;53.266;10.410;2022-08-01T00:29:48;101035.94;;;19.71;100.00
10510;BME280;5303;53.266;10.410;2022-08-01T00:32:14;101036.19;;;19.69;100.00
10510;BME280;5303;53.266;10.410;2022-08-01T00:34:39;101039.56;;;19.71;100.00
10510;BME280;5303;53.266;10.410;2022-08-01T00:37:04;101030.28;;;19.66;100.00
10510;BME280;5303;53.266;10.410;2022-08-01T00:39:30;101034.97;;;19.65;100.00
10510;BME280;5303;53.266;10.410;2022-08-01T00:41:55;101034.50;;;19.68;100.00
10510;BME280;5303;53.266;10.410;2022-08-01T00:44:20;101034.50;;;19.68;100.00
10510;BME280;5303;53.266;10.410;2022-08-01T00:46:45;101038.41;;;19.79;100.00
10510;BME280;5303;53.266;10.410;2022-08-01T00:49:11;101043.94;;;19.79;100.00
10510;BME280;5303;53.266;10.410;2022-08-01T00:51:36;101035.03;;;19.77;100.00
10510;BME280;5303;53.266;10.410;2022-08-01T00:54:02;101041.19;;;19.79;100.00
10510;BME280;5303;53.266;10.410;2022-08-01T00:56:27;101035.50;;;19.92;100.00
10510;BME280;5303;53.266;10.410;2022-08-01T00:58:54;101038.19;;;19.81;100.00
10510;BME280;5303;53.266;10.410;2022-08-01T01:01:20;101039.88;;;19.82;100.00
10510;BME280;5303;53.266;10.410;2022-08-01T01:03:51;101030.97;;;19.80;100.00
10510;BME280;5303;53.266;10.410;2022-08-01T01:09:39;101039.88;;;19.82;100.00
10510;BME280;5303;53.266;10.410;2022-08-01T01:14:57;101033.59;;;19.74;100.00
10510;BME280;5303;53.266;10.410;2022-08-01T01:17:30;101038.59;;;19.84;100.00
10510;BME280;5303;53.266;10.410;2022-08-01T01:19:59;101033.06;;;19.84;100.00
10510;BME280;5303;53.266;10.410;2022-08-01T01:22:36;101038.19;;;19.81;100.00
10510;BME280;5303;53.266;10.410;2022-08-01T01:25:09;101030.75;;;19.81;100.00
10510;BME280;5303;53.266;10.410;2022-08-01T01:28:02;101033.00;;;19.91;100.00
10510;BME280;5303;53.266;10.410;2022-08-01T01:30:33;101034.28;;;19.88;100.00
10510;BME280;5303;53.266;10.410;2022-08-01T01:33:01;101035.88;;;19.96;100.00
10510;BME280;5303;53.266;10.410;2022-08-01T01:35:31;101033.13;;;19.96;100.00
10510;BME280;5303;53.266;10.410;2022-08-01T01:38:02;101038.28;;;19.92;100.00
10510;BME280;5303;53.266;10.410;2022-08-01T01:40:30;101036.97;;;19.95;100.00
10510;BME280;5303;53.266;10.410;2022-08-01T01:42:56;101036.34;;;19.93;100.00
10510;BME280;5303;53.266;10.410;2022-08-01T01:45:24;101035.50;;;19.92;100.00
10510;BME280;5303;53.266;10.410;2022-08-01T01:47:50;101035.13;;;19.89;100.00
10510;BME280;5303;53.266;10.410;2022-08-01T01:50:20;101043.81;;;19.92;100.00
10510;BME280;5303;53.266;10.410;2022-08-01T01:52:46;101044.25;;;19.89;100.00
10510;BME280;5303;53.266;10.410;2022-08-01T01:55:13;101046.19;;;19.89;100.00
10510;BME280;5303;53.266;10.410;2022-08-01T01:57:41;101048.50;;;19.92;100.00
10510;BME280;5303;53.266;10.410;2022-08-01T02:00:09;101040.72;;;19.82;100.00
10510;BME280;5303;53.266;10.410;2022-08-01T02:02:36;101043.66;;;19.87;100.00
10510;BME280;5303;53.266;10.410;2022-08-01T02:05:02;101042.47;;;19.76;100.00
10510;BME280;5303;53.266;10.410;2022-08-01T02:07:28;101039.25;;;19.80;100.00
10510;BME280;5303;53.266;10.410;2022-08-01T02:09:54;101040.34;;;19.78;100.00
10510;BME280;5303;53.266;10.410;2022-08-01T02:12:21;101040.56;;;19.77;100.00
10510;BME280;5303;53.266;10.410;2022-08-01T02:14:48;101040.94;;;19.81;100.00
10510;BME280;5303;53.266;10.410;2022-08-01T02:17:16;101033.59;;;19.74;100.00
10510;BME280;5303;53.266;10.410;2022-08-01T02:19:42;101039.13;;;19.74;100.00
10510;BME280;5303;53.266;10.410;2022-08-01T02:22:10;101035.47;;;19.74;100.00
10510;BME280;5303;53.266;10.410;2022-08-01T02:24:44;101039.50;;;19.78;100.00
10510;BME280;5303;53.266;10.410;2022-08-01T02:27:14;101044.84;;;19.73;100.00
10510;BME280;5303;53.266;10.410;2022-08-01T02:29:44;101048.00;;;19.76;100.00
10510;BME280;5303;53.266;10.410;2022-08-01T02:32:20;101040.72;;;19.82;100.00
10510;BME280;5303;53.266;10.410;2022-08-01T02:34:49;101045.16;;;19.83;100.00
10510;BME280;5303;53.266;10.410;2022-08-01T02:37:17;101048.38;;;19.80;100.00
10510;BME280;5303;53.266;10.410;2022-08-01T02:39:45;101047.78;;;19.78;100.00
10510;BME280;5303;53.266;10.410;2022-08-01T02:42:13;101047.72;;;19.85;100.00
10510;BME280;5303;53.266;10.410;2022-08-01T02:44:41;101045.63;;;19.80;100.00
10510;BME280;5303;53.266;10.410;2022-08-01T02:47:08;101051.41;;;19.78;100.00
10510;BME280;5303;53.266;10.410;2022-08-01T02:49:39;101049.66;;;19.84;100.00
10510;BME280;5303;53.266;10.410;2022-08-01T02:52:08;101046.53;;;19.74;100.00
10510;BME280;5303;53.266;10.410;2022-08-01T02:54:37;101045.69;;;19.73;100.00
10510;BME280;5303;53.266;10.410;2022-08-01T02:57:04;101050.19;;;19.74;100.00
10510;BME280;5303;53.266;10.410;2022-08-01T02:59:31;101050.69;;;19.65;100.00
10510;BME280;5303;53.266;10.410;2022-08-01T03:01:59;101046.88;;;19.59;100.00
10510;BME280;5303;53.266;10.410;2022-08-01T03:04:27;101053.88;;;19.62;100.00
10510;BME280;5303;53.266;10.410;2022-08-01T03:06:54;101052.63;;;19.58;100.00
10510;BME280;5303;53.266;10.410;2022-08-01T03:09:21;101057.56;;;19.55;100.00
10510;BME280;5303;53.266;10.410;2022-08-01T03:11:48;101051.78;;;19.57;100.00
10510;BME280;5303;53.266;10.410;2022-08-01T03:14:14;101060.06;;;19.57;100.00
10510;BME280;5303;53.266;10.410;2022-08-01T03:16:42;101062.00;;;19.57;100.00
10510;BME280;5303;53.266;10.410;2022-08-01T03:19:11;101064.75;;;19.57;100.00
10510;BME280;5303;53.266;10.410;2022-08-01T03:21:37;101063.47;;;19.59;100.00
10510;BME280;5303;53.266;10.410;2022-08-01T03:24:05;101068.22;;;19.52;100.00
10510;BME280;5303;53.266;10.410;2022-08-01T03:26:34;101073.75;;;19.52;100.00
10510;BME280;5303;53.266;10.410;2022-08-01T03:29:04;101070.81;;;19.47;100.00
10510;BME280;5303;53.266;10.410;2022-08-01T03:31:34;101078.84;;;19.48;100.00
10510;BME280;5303;53.266;10.410;2022-08-01T03:34:00;101077.41;;;19.46;100.00
10510;BME280;5303;53.266;10.410;2022-08-01T03:36:26;101076.16;;;19.42;100.00
10510;BME280;5303;53.266;10.410;2022-08-01T03:38:56;101084.81;;;19.45;100.00
10510;BME280;5303;53.266;10.410;2022-08-01T03:41:24;101082.06;;;19.45;100.00
10510;BME280;5303;53.266;10.410;2022-08-01T03:44:07;101086.34;;;19.41;100.00
10510;BME280;5303;53.266;10.410;2022-08-01T03:46:36;101088.66;;;19.44;100.00
10510;BME280;5303;53.266;10.410;2022-08-01T03:49:09;101087.78;;;19.50;100.00
10510;BME280;5303;53.266;10.410;2022-08-01T03:51:37;101085.44;;;19.47;100.00
10510;BME280;5303;53.266;10.410;2022-08-01T03:54:03;101080.88;;;19.35;100.00
10510;BME280;5303;53.266;10.410;2022-08-01T03:56:30;101086.81;;;19.38;100.00
10510;BME280;5303;53.266;10.410;2022-08-01T03:59:00;101085.81;;;19.33;100.00
10510;BME280;5303;53.266;10.410;2022-08-01T04:01:28;101090.84;;;19.36;100.00
10510;BME280;5303;53.266;10.410;2022-08-01T04:03:54;101090.19;;;19.40;100.00
10510;BME280;5303;53.266;10.410;2022-08-01T04:06:20;101096.81;;;19.39;100.00
10510;BME280;5303;53.266;10.410;2022-08-01T04:08:45;101099.31;;;19.41;100.00
10510;BME280;5303;53.266;10.410;2022-08-01T04:11:21;101101.41;;;19.45;100.00
10510;BME280;5303;53.266;10.410;2022-08-01T04:13:46;101100.16;;;19.41;100.00
10510;BME280;5303;53.266;10.410;2022-08-01T04:16:12;101106.31;;;19.43;100.00
10510;BME280;5303;53.266;10.410;2022-08-01T04:18:37;101102.94;;;19.41;100.00
10510;BME280;5303;53.266;10.410;2022-08-01T04:21:02;101102.09;;;19.41;100.00
10510;BME280;5303;53.266;10.410;2022-08-01T04:23:30;101102.94;;;19.41;100.00
10510;BME280;5303;53.266;10.410;2022-08-01T04:25:57;101117.38;;;19.43;100.00
10510;BME280;5303;53.266;10.410;2022-08-01T04:28:24;101118.22;;;19.44;100.00
10510;BME280;5303;53.266;10.410;2022-08-01T04:30:52;101120.78;;;19.39;100.00
10510;BME280;5303;53.266;10.410;2022-08-01T04:33:19;101115.69;;;19.42;100.00
10510;BME280;5303;53.266;10.410;2022-08-01T04:35:47;101121.81;;;19.44;100.00
10510;BME280;5303;53.266;10.410;2022-08-01T04:38:18;101124.13;;;19.47;100.00
10510;BME280;5303;53.266;10.410;2022-08-01T04:40:45;101128.56;;;19.48;100.00
10510;BME280;5303;53.266;10.410;2022-08-01T04:43:13;101126.25;;;19.45;100.00
10510;BME280;5303;53.266;10.410;2022-08-01T04:45:39;101127.75;;;19.48;100.00
10510;BME280;5303;53.266;10.410;2022-08-01T04:48:05;101139.25;;;19.45;100.00
10510;BME280;5303;53.266;10.410;2022-08-01T04:50:31;101145.59;;;19.52;100.00
10510;BME280;5303;53.266;10.410;2022-08-01T04:52:57;101146.03;;;19.49;100.00
10510;BME280;5303;53.266;10.410;2022-08-01T04:55:22;101146.88;;;19.49;100.00
10510;BME280;5303;53.266;10.410;2022-08-01T04:57:47;101147.72;;;19.50;100.00
10510;BME280;5303;53.266;10.410;2022-08-01T05:00:14;101146.25;;;19.47;100.00
10510;BME280;5303;53.266;10.410;2022-08-01T05:02:41;101146.88;;;19.49;100.00
10510;BME280;5303;53.266;10.410;2022-08-01T05:05:07;101138.97;;;19.53;100.00
10510;BME280;5303;53.266;10.410;2022-08-01T05:07:32;101139.38;;;19.57;100.00
10510;BME280;5303;53.266;10.410;2022-08-01T05:09:59;101144.06;;;19.56;100.00
10510;BME280;5303;53.266;10.410;2022-08-01T05:12:26;101145.28;;;19.60;100.00
10510;BME280;5303;53.266;10.410;2022-08-01T05:14:51;101145.09;;;19.62;100.00
10510;BME280;5303;53.266;10.410;2022-08-01T05:17:16;101143.16;;;19.62;100.00
10510;BME280;5303;53.266;10.410;2022-08-01T05:19:42;101147.59;;;19.63;100.00
10510;BME280;5303;53.266;10.410;2022-08-01T05:22:08;101145.09;;;19.62;100.00
10510;BME280;5303;53.266;10.410;2022-08-01T05:24:37;101148.28;;;19.65;100.00
10510;BME280;5303;53.266;10.410;2022-08-01T05:27:03;101147.97;;;19.73;100.00
10510;BME280;5303;53.266;10.410;2022-08-01T05:29:29;101146.03;;;19.74;100.00
10510;BME280;5303;53.266;10.410;2022-08-01T05:31:54;101148.28;;;19.84;100.00
10510;BME280;5303;53.266;10.410;2022-08-01T05:34:20;101149.78;;;19.86;100.00
10510;BME280;5303;53.266;10.410;2022-08-01T05:36:46;101151.47;;;19.87;100.00
10510;BME280;5303;53.266;10.410;2022-08-01T05:39:12;101147.38;;;19.90;100.00
10510;BME280;5303;53.266;10.410;2022-08-01T05:41:38;101158.25;;;19.91;100.00
10510;BME280;5303;53.266;10.410;2022-08-01T05:44:04;101152.72;;;19.91;100.00
10510;BME280;5303;53.266;10.410;2022-08-01T05:46:30;101155.47;;;19.91;100.00
10510;BME280;5303;53.266;10.410;2022-08-01T05:48:59;101162.41;;;20.00;100.00
10510;BME280;5303;53.266;10.410;2022-08-01T05:51:25;101172.63;;;20.00;100.00
10510;BME280;5303;53.266;10.410;2022-08-01T05:53:50;101164.53;;;19.98;100.00
10510;BME280;5303;53.266;10.410;2022-08-01T05:56:16;101161.84;;;19.92;100.00
10510;BME280;5303;53.266;10.410;2022-08-01T05:58:41;101163.53;;;19.93;100.00
10510;BME280;5303;53.266;10.410;2022-08-01T06:01:07;101171.38;;;19.96;100.00
10510;BME280;5303;53.266;10.410;2022-08-01T06:03:32;101168.22;;;19.92;100.00
10510;BME280;5303;53.266;10.410;2022-08-01T06:05:59;101177.75;;;19.96;100.00
10510;BME280;5303;53.266;10.410;2022-08-01T06:08:24;101175.91;;;19.90;100.00
10510;BME280;5303;53.266;10.410;2022-08-01T06:10:50;101172.97;;;19.85;100.00
10510;BME280;5303;53.266;10.410;2022-08-01T06:13:15;101176.75;;;19.91;100.00
10510;BME280;5303;53.266;10.410;2022-08-01T06:15:40;101180.03;;;19.81;100.00
10510;BME280;5303;53.266;10.410;2022-08-01T06:18:05;101174.94;;;19.78;100.00
10510;BME280;5303;53.266;10.410;2022-08-01T06:20:31;101178.16;;;19.75;100.00
10510;BME280;5303;53.266;10.410;2022-08-01T06:22:56;101187.06;;;19.77;100.00
10510;BME280;5303;53.266;10.410;2022-08-01T06:25:22;101186.22;;;19.76;100.00
10510;BME280;5303;53.266;10.410;2022-08-01T06:27:48;101192.38;;;19.78;100.00
10510;BME280;5303;53.266;10.410;2022-08-01T06:30:14;101191.69;;;19.83;100.00
10510;BME280;5303;53.266;10.410;2022-08-01T06:32:40;101204.53;;;19.71;100.00
10510;BME280;5303;53.266;10.410;2022-08-01T06:35:06;101199.06;;;19.64;100.00
10510;BME280;5303;53.266;10.410;2022-08-01T06:37:31;101201.41;;;19.61;100.00
10510;BME280;5303;53.266;10.410;2022-08-01T06:40:02;101198.03;;;19.59;100.00
10510;BME280;5303;53.266;10.410;2022-08-01T06:42:27;101210.63;;;19.48;100.00
10510;BME280;5303;53.266;10.410;2022-08-01T06:44:52;101203.75;;;19.57;100.00
10510;BME280;5303;53.266;10.410;2022-08-01T06:47:18;101206.13;;;19.53;100.00
10510;BME280;5303;53.266;10.410;2022-08-01T06:49:43;101215.03;;;19.24;100.00
10510;BME280;5303;53.266;10.410;2022-08-01T06:52:08;101209.03;;;19.34;100.00
10510;BME280;5303;53.266;10.410;2022-08-01T06:54:34;101214.69;;;19.45;100.00
10510;BME280;5303;53.266;10.410;2022-08-01T06:56:59;101217.19;;;19.53;100.00
10510;BME280;5303;53.266;10.410;2022-08-01T06:59:24;101220.63;;;19.49;100.00
10510;BME280;5303;53.266;10.410;2022-08-01T07:01:49;101217.34;;;19.65;100.00
10510;BME280;5303;53.266;10.410;2022-08-01T07:04:15;101217.91;;;19.74;100.00
10510;BME280;5303;53.266;10.410;2022-08-01T07:06:40;101217.47;;;19.77;100.00
10510;BME280;5303;53.266;10.410;2022-08-01T07:09:05;101216.47;;;19.71;100.00
10510;BME280;5303;53.266;10.410;2022-08-01T07:11:30;101215.38;;;19.72;100.00
10510;BME280;5303;53.266;10.410;2022-08-01T07:13:59;101218.94;;;19.80;100.00
10510;BME280;5303;53.266;10.410;2022-08-01T07:16:25;101216.47;;;19.71;100.00
10510;BME280;5303;53.266;10.410;2022-08-01T07:18:50;101222.16;;;19.76;100.00
10510;BME280;5303;53.266;10.410;2022-08-01T07:21:16;101220.84;;;19.79;100.00
10510;BME280;5303;53.266;10.410;2022-08-01T07:23:41;101225.25;;;19.87;100.00
10510;BME280;5303;53.266;10.410;2022-08-01T07:26:06;101229.50;;;19.89;100.00
10510;BME280;5303;53.266;10.410;2022-08-01T07:28:32;101229.09;;;19.86;100.00
10510;BME280;5303;53.266;10.410;2022-08-01T07:30:57;101227.41;;;19.85;100.00
10510;BME280;5303;53.266;10.410;2022-08-01T07:33:22;101232.16;;;20.02;100.00
10510;BME280;5303;53.266;10.410;2022-08-01T07:35:48;101235.31;;;20.06;100.00
10510;BME280;5303;53.266;10.410;2022-08-01T07:38:14;101234.56;;;20.17;100.00
10510;BME280;5303;53.266;10.410;2022-08-01T07:40:42;101241.59;;;20.20;100.00
10510;BME280;5303;53.266;10.410;2022-08-01T07:43:07;101252.00;;;20.18;100.00
10510;BME280;5303;53.266;10.410;2022-08-01T07:45:33;101246.66;;;19.98;100.00
10510;BME280;5303;53.266;10.410;2022-08-01T07:48:03;101248.06;;;20.07;100.00
10510;BME280;5303;53.266;10.410;2022-08-01T07:50:28;101257.66;;;20.05;100.00
10510;BME280;5303;53.266;10.410;2022-08-01T07:52:55;101253.09;;;19.92;100.00
10510;BME280;5303;53.266;10.410;2022-08-01T07:55:20;101247.84;;;20.09;100.00
10510;BME280;5303;53.266;10.410;2022-08-01T07:57:45;101257.41;;;20.13;100.00
10510;BME280;5303;53.266;10.410;2022-08-01T08:00:11;101255.81;;;20.23;100.00
10510;BME280;5303;53.266;10.410;2022-08-01T08:02:36;101260.88;;;20.27;100.00
10510;BME280;5303;53.266;10.410;2022-08-01T08:05:02;101260.94;;;20.45;100.00
10510;BME280;5303;53.266;10.410;2022-08-01T08:07:28;101270.22;;;20.51;100.00
10510;BME280;5303;53.266;10.410;2022-08-01T08:09:54;101271.03;;;20.33;100.00
10510;BME280;5303;53.266;10.410;2022-08-01T08:12:19;101280.91;;;20.22;100.00
10510;BME280;5303;53.266;10.410;2022-08-01T08:14:45;101278.78;;;20.24;100.00
10510;BME280;5303;53.266;10.410;2022-08-01T08:17:11;101280.06;;;20.21;100.00
10510;BME280;5303;53.266;10.410;2022-08-01T08:19:36;101281.22;;;20.14;100.00
10510;BME280;5303;53.266;10.410;2022-08-01T08:22:04;101283.78;;;20.34;100.00
10510;BME280;5303;53.266;10.410;2022-08-01T08:24:31;101276.06;;;20.42;100.00
10510;BME280;5303;53.266;10.410;2022-08-01T08:26:58;101278.34;;;20.52;100.00
10510;BME280;5303;53.266;10.410;2022-08-01T08:29:24;101271.75;;;20.72;100.00
10510;BME280;5303;53.266;10.410;2022-08-01T08:31:52;101278.91;;;20.36;100.00
10510;BME280;5303;53.266;10.410;2022-08-01T08:34:19;101265.59;;;20.44;100.00
10510;BME280;5303;53.266;10.410;2022-08-01T08:36:44;101270.09;;;20.64;100.00
10510;BME280;5303;53.266;10.410;2022-08-01T08:39:09;101281.22;;;20.82;100.00
10510;BME280;5303;53.266;10.410;2022-08-01T08:41:35;101282.59;;;20.73;100.00
10510;BME280;5303;53.266;10.410;2022-08-01T08:44:02;101279.88;;;20.66;100.00
10510;BME280;5303;53.266;10.410;2022-08-01T08:46:27;101282.31;;;21.00;100.00
10510;BME280;5303;53.266;10.410;2022-08-01T08:48:54;101280.53;;;20.87;100.00
10510;BME280;5303;53.266;10.410;2022-08-01T08:51:21;101284.75;;;20.89;100.00
10510;BME280;5303;53.266;10.410;2022-08-01T08:53:48;101289.13;;;20.79;100.00
10510;BME280;5303;53.266;10.410;2022-08-01T08:56:16;101293.97;;;20.83;100.00
10510;BME280;5303;53.266;10.410;2022-08-01T08:58:44;101298.44;;;20.84;100.00
10510;BME280;5303;53.266;10.410;2022-08-01T09:01:10;101298.59;;;20.71;100.00
10510;BME280;5303;53.266;10.410;2022-08-01T09:03:37;101298.22;;;20.67;100.00
10510;BME280;5303;53.266;10.410;2022-08-01T09:06:02;101308.66;;;20.65;100.00
10510;BME280;5303;53.266;10.410;2022-08-01T09:08:28;101310.50;;;20.72;100.00
10510;BME280;5303;53.266;10.410;2022-08-01T09:10:54;101319.28;;;20.68;100.00
10510;BME280;5303;53.266;10.410;2022-08-01T09:13:19;101327.34;;;20.70;100.00
10510;BME280;5303;53.266;10.410;2022-08-01T09:15:45;101329.88;;;20.72;100.00
10510;BME280;5303;53.266;10.410;2022-08-01T09:21:21;101335.53;;;21.02;100.00
10510;BME280;5303;53.266;10.410;2022-08-01T09:23:53;101330.44;;;20.99;100.00
10510;BME280;5303;53.266;10.410;2022-08-01T09:26:30;101339.59;;;20.99;100.00
10510;BME280;5303;53.266;10.410;2022-08-01T09:28:57;101341.69;;;21.04;100.00
10510;BME280;5303;53.266;10.410;2022-08-01T09:31:26;101342.06;;;21.07;100.00
10510;BME280;5303;53.266;10.410;2022-08-01T09:34:00;101338.53;;;21.18;100.00
10510;BME280;5303;53.266;10.410;2022-08-01T09:36:52;101346.44;;;21.15;100.00
10510;BME280;5303;53.266;10.410;2022-08-01T09:39:21;101345.06;;;21.24;100.00
10510;BME280;5303;53.266;10.410;2022-08-01T09:41:47;101347.38;;;21.27;100.00
10510;BME280;5303;53.266;10.410;2022-08-01T09:44:13;101350.25;;;21.39;100.00
10510;BME280;5303;53.266;10.410;2022-08-01T09:46:49;101351.63;;;21.30;100.00
10510;BME280;5303;53.266;10.410;2022-08-01T09:49:26;101356.78;;;21.26;100.00
10510;BME280;5303;53.266;10.410;2022-08-01T09:51:52;101365.81;;;21.40;100.00
10510;BME280;5303;53.266;10.410;2022-08-01T09:54:31;101362.53;;;21.25;100.00
10510;BME280;5303;53.266;10.410;2022-08-01T09:57:15;101375.00;;;20.97;100.00
10510;BME280;5303;53.266;10.410;2022-08-01T09:59:47;101368.75;;;21.02;100.00
10510;BME280;5303;53.266;10.410;2022-08-01T10:02:14;101371.06;;;21.05;100.00
10510;BME280;5303;53.266;10.410;2022-08-01T10:04:51;101369.31;;;21.10;100.00
10510;BME280;5303;53.266;10.410;2022-08-01T10:07:18;101372.16;;;21.04;100.00
10510;BME280;5303;53.266;10.410;2022-08-01T10:09:45;101375.22;;;21.39;100.00
10510;BME280;5303;53.266;10.410;2022-08-01T10:12:15;101372.31;;;21.27;100.00
10510;BME280;5303;53.266;10.410;2022-08-01T10:14:43;101376.88;;;21.58;100.00
10510;BME280;5303;53.266;10.410;2022-08-01T10:17:13;101376.09;;;21.70;100.00
10510;BME280;5303;53.266;10.410;2022-08-01T10:19:39;101376.44;;;21.92;100.00
10510;BME280;5303;53.266;10.410;2022-08-01T10:22:08;101381.59;;;21.88;100.00
10510;BME280;5303;53.266;10.410;2022-08-01T10:24:37;101382.16;;;21.78;100.00
10510;BME280;5303;53.266;10.410;2022-08-01T10:27:06;101379.56;;;21.65;100.00
10510;BME280;5303;53.266;10.410;2022-08-01T10:29:42;101375.16;;;21.21;100.00
10510;BME280;5303;53.266;10.410;2022-08-01T10:32:08;101385.09;;;21.28;100.00
10510;BME280;5303;53.266;10.410;2022-08-01T10:34:35;101391.13;;;21.62;100.00
10510;BME280;5303;53.266;10.410;2022-08-01T10:37:02;101384.50;;;21.63;100.00
10510;BME280;5303;53.266;10.410;2022-08-01T10:39:27;101381.69;;;21.81;100.00
10510;BME280;5303;53.266;10.410;2022-08-01T10:41:55;101383.00;;;21.79;100.00
10510;BME280;5303;53.266;10.410;2022-08-01T10:44:21;101387.44;;;21.98;100.00
10510;BME280;5303;53.266;10.410;2022-08-01T10:46:50;101382.59;;;21.94;100.00
10510;BME280;5303;53.266;10.410;2022-08-01T10:49:20;101385.00;;;21.90;100.00
10510;BME280;5303;53.266;10.410;2022-08-01T10:51:47;101377.53;;;21.91;100.00
10510;BME280;5303;53.266;10.410;2022-08-01T10:54:13;101377.16;;;21.87;100.00
10510;BME280;5303;53.266;10.410;2022-08-01T10:56:49;101374.50;;;21.92;100.00
10510;BME280;5303;53.266;10.410;2022-08-01T10:59:24;101380.00;;;22.10;100.00
10510;BME280;5303;53.266;10.410;2022-08-01T11:01:57;101381.88;;;22.17;100.00
10510;BME280;5303;53.266;10.410;2022-08-01T11:04:42;101382.25;;;22.02;100.00
10510;BME280;5303;53.266;10.410;2022-08-01T11:07:51;101388.38;;;21.92;100.00
10510;BME280;5303;53.266;10.410;2022-08-01T11:10:42;101386.63;;;22.09;100.00
10510;BME280;5303;53.266;10.410;2022-08-01T11:13:11;101383.88;;;22.09;100.00
10510;BME280;5303;53.266;10.410;2022-08-01T11:15:38;101383.53;;;22.18;100.00
10510;BME280;5303;53.266;10.410;2022-08-01T11:21:02;101388.31;;;22.10;100.00
10510;BME280;5303;53.266;10.410;2022-08-01T11:23:28;101383.78;;;22.16;100.00
10510;BME280;5303;53.266;10.410;2022-08-01T11:28:21;101399.31;;;22.05;100.00
10510;BME280;5303;53.266;10.410;2022-08-01T11:33:18;101404.59;;;22.07;100.00
10510;BME280;5303;53.266;10.410;2022-08-01T11:41:13;101403.38;;;22.03;100.00
10510;BME280;5303;53.266;10.410;2022-08-01T11:46:49;101388.50;;;22.16;100.00
10510;BME280;5303;53.266;10.410;2022-08-01T11:54:32;101387.78;;;22.20;100.00
10510;BME280;5303;53.266;10.410;2022-08-01T11:56:59;101389.25;;;22.23;97.14
10510;BME280;5303;53.266;10.410;2022-08-01T11:59:25;101397.13;;;22.49;93.98
10510;BME280;5303;53.266;10.410;2022-08-01T12:01:51;101394.38;;;22.49;91.48
10510;BME280;5303;53.266;10.410;2022-08-01T12:04:17;101389.66;;;22.50;91.50
10510;BME280;5303;53.266;10.410;2022-08-01T12:06:42;101390.59;;;22.44;95.81
10510;BME280;5303;53.266;10.410;2022-08-01T12:09:18;101390.88;;;22.54;95.33
10510;BME280;5303;53.266;10.410;2022-08-01T12:11:43;101390.41;;;22.69;100.00
10510;BME280;5303;53.266;10.410;2022-08-01T12:14:09;101390.91;;;22.77;98.43
10510;BME280;5303;53.266;10.410;2022-08-01T12:16:36;101387.78;;;22.86;95.67
10510;BME280;5303;53.266;10.410;2022-08-01T12:19:01;101389.34;;;22.82;94.55
10510;BME280;5303;53.266;10.410;2022-08-01T12:21:26;101391.66;;;22.73;92.52
10510;BME280;5303;53.266;10.410;2022-08-01T12:24:02;101386.69;;;22.63;93.17
10510;BME280;5303;53.266;10.410;2022-08-01T12:26:45;101399.09;;;22.72;91.01
10510;BME280;5303;53.266;10.410;2022-08-01T12:29:30;101390.44;;;22.81;87.69
10510;BME280;5303;53.266;10.410;2022-08-01T12:31:55;101398.28;;;22.84;88.41
10510;BME280;5303;53.266;10.410;2022-08-01T12:34:28;101395.88;;;22.87;88.60
10510;BME280;5303;53.266;10.410;2022-08-01T12:36:58;101395.38;;;22.90;85.91
10510;BME280;5303;53.266;10.410;2022-08-01T12:39:43;101389.13;;;23.07;84.02
10510;BME280;5303;53.266;10.410;2022-08-01T12:42:09;101392.63;;;23.14;86.05
10510;BME280;5303;53.266;10.410;2022-08-01T12:44:36;101387.06;;;23.14;89.63
10510;BME280;5303;53.266;10.410;2022-08-01T12:47:06;101397.34;;;23.25;88.58
10510;BME280;5303;53.266;10.410;2022-08-01T12:49:35;101390.09;;;23.12;85.43
10510;BME280;5303;53.266;10.410;2022-08-01T12:52:01;101388.38;;;23.11;83.91
10510;BME280;5303;53.266;10.410;2022-08-01T12:54:27;101391.56;;;23.15;82.92
10510;BME280;5303;53.266;10.410;2022-08-01T12:56:52;101394.69;;;23.18;83.51
10510;BME280;5303;53.266;10.410;2022-08-01T12:59:25;101392.75;;;23.19;84.74
10510;BME280;5303;53.266;10.410;2022-08-01T13:01:55;101397.44;;;23.30;85.89
10510;BME280;5303;53.266;10.410;2022-08-01T13:04:22;101391.91;;;23.18;82.19
10510;BME280;5303;53.266;10.410;2022-08-01T13:06:52;101387.75;;;23.44;82.80
10510;BME280;5303;53.266;10.410;2022-08-01T13:09:18;101384.47;;;23.47;84.48
10510;BME280;5303;53.266;10.410;2022-08-01T13:11:43;101387.41;;;23.41;84.01
10510;BME280;5303;53.266;10.410;2022-08-01T13:14:09;101387.00;;;23.49;82.14